createdAt,value
2019-04-01T00:01:00.994Z,7.43
2019-04-01T00:04:04.964Z,7.23
2019-04-01T00:07:08.537Z,6.93
2019-04-01T00:10:12.157Z,7.20
2019-04-01T00:13:15.743Z,6.80
2019-04-01T00:16:19.310Z,6.83
2019-04-01T00:19:23.192Z,6.73
2019-04-01T00:22:27.051Z,6.67
2019-04-01T00:25:30.630Z,6.63
2019-04-01T00:28:34.420Z,6.90
2019-04-01T00:31:38.599Z,6.47
2019-04-01T00:34:42.186Z,6.13
2019-04-01T00:37:46.022Z,6.10
2019-04-01T00:40:49.589Z,6.40
2019-04-01T00:43:54.491Z,6.30
2019-04-01T00:46:58.379Z,5.43
2019-04-01T00:50:02.352Z,5.77
2019-04-01T00:53:06.289Z,5.70
2019-04-01T00:56:09.864Z,5.00
2019-04-01T00:59:13.801Z,5.17
2019-04-01T01:02:17.709Z,5.50
2019-04-01T01:05:21.319Z,5.13
2019-04-01T01:08:24.892Z,4.63
2019-04-01T01:11:28.808Z,5.30
2019-04-01T01:14:32.653Z,4.60
2019-04-01T01:17:36.289Z,4.93
2019-04-01T01:20:40.143Z,4.97
2019-04-01T01:23:43.723Z,4.47
2019-04-01T01:26:47.648Z,4.43
2019-04-01T01:29:51.232Z,5.13
2019-04-01T01:32:55.056Z,4.30
2019-04-01T01:35:58.637Z,4.10
2019-04-01T01:39:02.208Z,4.60
2019-04-01T01:42:06.086Z,4.20
2019-04-01T01:45:09.727Z,4.27
2019-04-01T01:48:13.616Z,4.00
2019-04-01T01:51:17.191Z,4.10
2019-04-01T01:54:20.789Z,4.07
2019-04-01T01:57:24.711Z,4.27
2019-04-01T02:00:29.248Z,3.73
2019-04-01T02:03:32.893Z,4.07
2019-04-01T02:06:36.763Z,4.07
2019-04-01T02:09:40.697Z,3.70
2019-04-01T02:12:44.573Z,4.10
2019-04-01T02:15:48.497Z,3.80
2019-04-01T02:18:52.626Z,3.33
2019-04-01T02:21:56.208Z,3.60
2019-04-01T02:24:59.795Z,3.43
2019-04-01T02:28:03.356Z,3.33
2019-04-01T02:31:06.959Z,3.80
2019-04-01T02:34:10.529Z,3.40
2019-04-01T02:37:14.161Z,3.10
2019-04-01T02:40:21.751Z,3.67
2019-04-01T02:43:23.567Z,3.30
2019-04-01T02:46:27.512Z,3.30
2019-04-01T02:49:31.068Z,3.23
2019-04-01T02:52:34.921Z,3.00
2019-04-01T02:55:38.568Z,3.23
2019-04-01T02:58:42.213Z,2.80
2019-04-01T03:01:45.767Z,2.90
2019-04-01T03:04:50.072Z,2.97
2019-04-01T03:07:54.088Z,2.50
2019-04-01T03:10:58.207Z,2.57
2019-04-01T03:14:02.101Z,2.70
2019-04-01T03:17:05.677Z,2.97
2019-04-01T03:20:09.341Z,2.60
2019-04-01T03:23:12.909Z,2.80
2019-04-01T03:26:16.472Z,3.00
2019-04-01T03:29:20.049Z,2.40
2019-04-01T03:32:24.071Z,2.90
2019-04-01T03:35:27.773Z,2.87
2019-04-01T03:38:31.416Z,2.33
2019-04-01T03:41:34.977Z,2.50
2019-04-01T03:44:38.549Z,2.30
2019-04-01T03:47:42.130Z,2.73
2019-04-01T03:50:45.696Z,2.53
2019-04-01T03:53:49.289Z,2.67
2019-04-01T03:56:52.862Z,2.50
2019-04-01T03:59:56.489Z,2.53
2019-04-01T04:03:00.378Z,2.27
2019-04-01T04:06:03.939Z,2.43
2019-04-01T04:09:07.517Z,2.40
2019-04-01T04:12:11.092Z,2.47
2019-04-01T04:15:14.855Z,2.17
2019-04-01T04:18:18.499Z,11.30
2019-04-01T04:21:24.170Z,46.17
2019-04-01T04:24:27.364Z,20.27
2019-04-01T04:27:30.933Z,11.93
2019-04-01T04:30:34.604Z,49.60
2019-04-01T04:33:38.207Z,48.13
2019-04-01T04:36:42.480Z,106.33
2019-04-01T04:39:46.070Z,53.67
2019-04-01T04:42:49.714Z,50.87
2019-04-01T04:45:53.308Z,54.47
2019-04-01T04:48:57.439Z,52.70
2019-04-01T04:52:04.399Z,51.13
2019-04-01T04:55:06.535Z,49.27
2019-04-01T04:58:10.106Z,47.13
2019-04-01T05:01:13.698Z,42.97
2019-04-01T05:04:17.277Z,37.83
2019-04-01T05:07:20.907Z,35.53
2019-04-01T05:10:24.568Z,37.17
2019-04-01T05:13:28.138Z,34.90
2019-04-01T05:16:31.731Z,33.33
2019-04-01T05:19:35.298Z,32.10
2019-04-01T05:22:39.395Z,31.53
2019-04-01T05:25:42.975Z,30.47
2019-04-01T05:28:47.526Z,30.63
2019-04-01T05:31:51.295Z,29.63
2019-04-01T05:34:56.443Z,28.67
2019-04-01T05:38:01.002Z,25.77
2019-04-01T05:41:04.763Z,25.23
2019-04-01T05:44:09.011Z,23.80
2019-04-01T05:47:12.854Z,24.57
2019-04-01T05:50:16.861Z,24.87
2019-04-01T05:53:20.520Z,22.60
2019-04-01T05:56:24.387Z,23.40
2019-04-01T05:59:28.522Z,22.70
2019-04-01T06:02:32.413Z,22.20
2019-04-01T06:05:35.991Z,20.30
2019-04-01T06:08:39.782Z,20.93
2019-04-01T06:11:43.438Z,20.33
2019-04-01T06:14:47.025Z,19.70
2019-04-01T06:17:50.950Z,19.60
2019-04-01T06:20:54.578Z,19.00
2019-04-01T06:23:59.130Z,19.40
2019-04-01T06:27:02.720Z,18.50
2019-04-01T06:30:06.409Z,18.17
2019-04-01T06:33:09.979Z,18.27
2019-04-01T06:36:14.119Z,17.10
2019-04-01T06:39:17.762Z,17.10
2019-04-01T06:42:21.741Z,16.77
2019-04-01T06:45:25.304Z,17.27
2019-04-01T06:48:28.868Z,16.63
2019-04-01T06:51:32.419Z,15.77
2019-04-01T06:54:35.991Z,15.70
2019-04-01T06:57:39.845Z,15.83
2019-04-01T07:00:43.398Z,14.93
2019-04-01T07:03:47.026Z,14.57
2019-04-01T07:06:50.582Z,14.33
2019-04-01T07:09:54.150Z,14.50
2019-04-01T07:12:58.081Z,14.40
2019-04-01T07:16:14.807Z,13.90
2019-04-01T07:19:07.013Z,13.67
2019-04-01T07:22:10.863Z,12.83
2019-04-01T07:25:14.692Z,12.33
2019-04-01T07:28:18.400Z,13.67
2019-04-01T07:31:22.053Z,13.30
2019-04-01T07:34:25.783Z,11.60
2019-04-01T07:37:29.340Z,12.13
2019-04-01T07:40:32.903Z,11.93
2019-04-01T07:43:36.466Z,11.27
2019-04-01T07:46:40.400Z,11.10
2019-04-01T07:49:44.323Z,11.20
2019-04-01T07:52:47.876Z,11.03
2019-04-01T07:55:51.442Z,10.73
2019-04-01T07:58:55.911Z,10.23
2019-04-01T08:01:59.852Z,10.07
2019-04-01T08:05:03.417Z,10.93
2019-04-01T08:08:07.241Z,9.37
2019-04-01T08:11:10.796Z,9.53
2019-04-01T08:14:14.346Z,9.80
2019-04-01T08:17:18.216Z,9.30
2019-04-01T08:20:21.848Z,9.47
2019-04-01T08:23:25.485Z,9.87
2019-04-01T08:26:29.055Z,9.00
2019-04-01T08:29:32.723Z,8.97
2019-04-01T08:32:37.217Z,9.40
2019-04-01T08:35:41.429Z,8.93
2019-04-01T08:38:45.272Z,9.67
2019-04-01T08:41:49.148Z,8.13
2019-04-01T08:44:52.874Z,9.00
2019-04-01T08:47:56.433Z,8.80
2019-04-01T08:50:59.993Z,7.57
2019-04-01T08:54:03.624Z,8.20
2019-04-01T08:57:07.479Z,7.80
2019-04-01T09:00:11.223Z,8.33
2019-04-01T09:03:14.786Z,8.03
2019-04-01T09:06:18.407Z,7.50
2019-04-01T09:09:24.171Z,8.07
2019-04-01T09:12:27.953Z,7.63
2019-04-01T09:15:31.973Z,7.07
2019-04-01T09:18:35.773Z,7.30
2019-04-01T09:21:39.355Z,6.80
2019-04-01T09:24:42.909Z,7.07
2019-04-01T09:27:46.791Z,6.60
2019-04-01T09:30:50.587Z,6.63
2019-04-01T09:33:54.432Z,7.37
2019-04-01T09:36:58.312Z,6.23
2019-04-01T09:40:01.873Z,6.23
2019-04-01T09:43:05.736Z,5.93
2019-04-01T09:46:09.306Z,6.50
2019-04-01T09:49:12.932Z,6.33
2019-04-01T09:52:16.485Z,6.30
2019-04-01T09:55:20.115Z,6.50
2019-04-01T09:58:23.672Z,5.70
2019-04-01T10:01:27.225Z,6.27
2019-04-01T10:04:30.791Z,5.83
2019-04-01T10:07:34.466Z,5.37
2019-04-01T10:10:38.175Z,5.73
2019-04-01T10:13:42.189Z,5.33
2019-04-01T10:16:45.737Z,5.37
2019-04-01T10:19:49.296Z,5.30
2019-04-01T10:22:53.411Z,5.33
2019-04-01T10:25:57.221Z,5.47
2019-04-01T10:29:00.769Z,4.60
2019-04-01T10:32:04.652Z,5.10
2019-04-01T10:35:08.574Z,5.23
2019-04-01T10:38:12.119Z,4.80
2019-04-01T10:41:15.673Z,4.93
2019-04-01T10:44:19.907Z,5.13
2019-04-01T10:47:23.482Z,4.77
2019-04-01T10:50:27.301Z,4.60
2019-04-01T10:53:30.900Z,4.47
2019-04-01T10:56:36.027Z,4.67
2019-04-01T10:59:40.132Z,4.20
2019-04-01T11:02:43.769Z,4.47
2019-04-01T11:05:47.508Z,4.87
2019-04-01T11:08:51.415Z,3.97
2019-04-01T11:11:55.955Z,4.27
2019-04-01T11:14:59.802Z,4.50
2019-04-01T11:18:03.360Z,4.27
2019-04-01T11:21:06.909Z,4.20
2019-04-01T11:24:11.063Z,4.20
2019-04-01T11:27:14.723Z,3.83
2019-04-01T11:30:18.756Z,3.80
2019-04-01T11:33:22.589Z,4.20
2019-04-01T11:36:26.526Z,3.60
2019-04-01T11:39:30.080Z,4.00
2019-04-01T11:42:33.627Z,3.70
2019-04-01T11:45:37.228Z,4.00
2019-04-01T11:48:41.032Z,3.47
2019-04-01T11:51:44.930Z,3.40
2019-04-01T11:54:48.526Z,3.40
2019-04-01T11:57:52.083Z,3.30
2019-04-01T12:00:55.640Z,3.30
2019-04-01T12:03:59.256Z,3.43
2019-04-01T12:07:02.818Z,3.13
2019-04-01T12:10:07.698Z,3.30
2019-04-01T12:13:11.487Z,3.43
2019-04-01T12:16:15.037Z,3.63
2019-04-01T12:19:18.592Z,3.27
2019-04-01T12:22:22.424Z,3.03
2019-04-01T12:25:25.962Z,3.00
2019-04-01T12:28:29.517Z,3.20
2019-04-01T12:31:33.418Z,3.10
2019-04-01T12:34:36.972Z,3.10
2019-04-01T12:37:40.523Z,3.20
2019-04-01T12:40:44.070Z,3.00
2019-04-01T12:43:47.628Z,3.00
2019-04-01T12:46:51.183Z,2.83
2019-04-01T12:49:55.034Z,2.60
2019-04-01T12:52:58.597Z,2.83
2019-04-01T12:56:02.468Z,2.50
2019-04-01T12:59:06.326Z,2.60
2019-04-01T13:02:09.871Z,2.70
2019-04-01T13:05:13.698Z,2.90
2019-04-01T13:08:17.313Z,2.80
2019-04-01T13:11:20.864Z,2.50
2019-04-01T13:14:24.673Z,2.63
2019-04-01T13:17:28.223Z,2.53
2019-04-01T13:20:37.904Z,2.43
2019-04-01T13:23:37.382Z,2.30
2019-04-01T13:26:40.930Z,2.37
2019-04-01T13:29:44.490Z,1.90
2019-04-01T13:32:48.823Z,2.30
2019-04-01T13:35:52.868Z,2.30
2019-04-01T13:38:56.724Z,2.37
2019-04-01T13:42:00.275Z,2.17
2019-04-01T13:45:03.848Z,2.43
2019-04-01T13:48:07.398Z,2.20
2019-04-01T13:51:10.957Z,2.07
2019-04-01T13:54:14.796Z,2.30
2019-04-01T13:57:18.345Z,2.13
2019-04-01T14:00:26.816Z,2.10
2019-04-01T14:03:28.380Z,1.90
2019-04-01T14:06:33.050Z,1.80
2019-04-01T14:09:36.610Z,1.90
2019-04-01T14:12:40.408Z,2.10
2019-04-01T14:15:43.974Z,1.80
2019-04-01T14:18:47.775Z,2.10
2019-04-01T14:21:52.096Z,1.73
2019-04-01T14:24:55.971Z,2.20
2019-04-01T14:27:59.756Z,2.03
2019-04-01T14:31:03.321Z,2.20
2019-04-01T14:34:12.979Z,1.93
2019-04-01T14:37:12.530Z,2.20
2019-04-01T14:40:18.192Z,6.63
2019-04-01T14:43:22.094Z,26.87
2019-04-01T14:46:25.664Z,69.83
2019-04-01T14:49:29.224Z,156.63
2019-04-01T14:52:33.204Z,136.73
2019-04-01T14:55:36.711Z,106.27
2019-04-01T14:58:40.277Z,103.57
2019-04-01T15:01:43.852Z,97.07
2019-04-01T15:04:47.405Z,95.80
2019-04-01T15:07:51.244Z,94.00
2019-04-01T15:10:54.823Z,91.53
2019-04-01T15:14:00.017Z,85.37
2019-04-01T15:17:04.220Z,83.10
2019-04-01T15:20:08.313Z,82.87
2019-04-01T15:23:11.874Z,78.47
2019-04-01T15:26:15.444Z,81.63
2019-04-01T15:29:18.999Z,60.53
2019-04-01T15:32:23.199Z,46.87
2019-04-01T15:35:26.908Z,50.20
2019-04-01T15:38:30.473Z,50.20
2019-04-01T15:41:34.035Z,51.60
2019-04-01T15:44:38.029Z,52.67
2019-04-01T15:47:42.430Z,48.83
2019-04-01T15:50:45.984Z,43.10
2019-04-01T15:53:49.548Z,41.80
2019-04-01T15:56:53.571Z,42.50
2019-04-01T15:59:57.475Z,43.10
2019-04-01T16:03:01.021Z,41.07
2019-04-01T16:06:07.541Z,39.80
2019-04-01T16:09:10.351Z,40.27
2019-04-01T16:12:16.053Z,35.63
2019-04-01T16:15:19.678Z,33.00
2019-04-01T16:18:23.233Z,54.90
2019-04-01T16:21:26.786Z,38.67
2019-04-01T16:24:30.354Z,36.70
2019-04-01T16:27:34.157Z,32.07
2019-04-01T16:30:37.727Z,30.93
2019-04-01T16:33:41.307Z,32.17
2019-04-01T16:36:45.200Z,28.73
2019-04-01T16:39:49.452Z,27.57
2019-04-01T16:42:55.689Z,25.50
2019-04-01T16:45:58.418Z,25.67
2019-04-01T16:49:02.264Z,26.10
2019-04-01T16:52:05.904Z,23.43
2019-04-01T16:55:11.334Z,21.70
2019-04-01T16:58:15.159Z,16.17
2019-04-01T17:01:18.791Z,17.00
2019-04-01T17:04:23.086Z,22.27
2019-04-01T17:07:26.894Z,9.93
2019-04-01T17:10:30.532Z,8.10
2019-04-01T17:13:34.093Z,4.87
2019-04-01T17:16:37.893Z,2.70
2019-04-01T17:19:42.383Z,2.30
2019-04-01T17:22:46.202Z,1.60
2019-04-01T17:25:50.017Z,1.60
2019-04-01T17:28:53.566Z,1.43
2019-04-01T17:31:57.464Z,1.63
2019-04-01T17:35:01.025Z,1.50
2019-04-01T17:38:04.659Z,1.20
2019-04-01T17:41:08.221Z,2.20
2019-04-01T17:44:11.864Z,110.53
2019-04-01T17:47:15.428Z,23.63
2019-04-01T17:50:19.306Z,20.37
2019-04-01T17:53:23.380Z,15.47
2019-04-01T17:56:26.946Z,4.57
2019-04-01T17:59:30.506Z,2.57
2019-04-01T18:02:34.142Z,1.90
2019-04-01T18:05:37.788Z,1.50
2019-04-01T18:08:41.350Z,1.27
2019-04-01T18:11:45.265Z,2.20
2019-04-01T18:14:48.818Z,3.00
2019-04-01T18:17:52.922Z,3.50
2019-04-01T18:20:56.753Z,2.00
2019-04-01T18:24:00.312Z,39.30
2019-04-01T18:27:04.216Z,62.60
2019-04-01T18:30:08.065Z,43.87
2019-04-01T18:33:11.648Z,38.03
2019-04-01T18:36:15.241Z,33.73
2019-04-01T18:39:18.797Z,32.50
2019-04-01T18:42:22.446Z,30.50
2019-04-01T18:45:26.077Z,29.97
2019-04-01T18:48:29.628Z,30.60
2019-04-01T18:51:36.419Z,29.23
2019-04-01T18:54:38.486Z,29.47
2019-04-01T18:57:42.689Z,28.40
2019-04-01T19:00:47.116Z,25.90
2019-04-01T19:03:51.394Z,10.43
2019-04-01T19:06:55.262Z,244.60
2019-04-01T19:10:06.130Z,71.43
2019-04-01T19:13:07.562Z,54.00
2019-04-01T19:16:12.725Z,50.20
2019-04-01T19:19:16.275Z,44.57
2019-04-01T19:22:20.074Z,39.80
2019-04-01T19:25:25.624Z,39.47
2019-04-01T19:28:29.568Z,39.70
2019-04-01T19:31:33.128Z,37.40
2019-04-01T19:34:36.719Z,38.00
2019-04-01T19:37:40.558Z,34.60
2019-04-01T19:40:44.200Z,34.17
2019-04-01T19:43:51.053Z,32.70
2019-04-01T19:46:53.624Z,34.47
2019-04-01T19:49:57.187Z,32.23
2019-04-01T19:53:02.702Z,30.87
2019-04-01T19:56:06.031Z,30.10
2019-04-01T19:59:09.909Z,31.73
2019-04-01T20:02:13.736Z,29.13
2019-04-01T20:05:17.309Z,28.47
2019-04-01T20:08:20.872Z,27.73
2019-04-01T20:11:24.434Z,27.43
2019-04-01T20:14:28.357Z,27.10
2019-04-01T20:17:31.911Z,25.83
2019-04-01T20:20:35.560Z,25.97
2019-04-01T20:23:39.462Z,23.97
2019-04-01T20:26:43.115Z,24.90
2019-04-01T20:29:46.678Z,24.50
2019-04-01T20:32:50.236Z,24.53
2019-04-01T20:35:53.879Z,23.27
2019-04-01T20:38:57.430Z,24.07
2019-04-01T20:42:01.068Z,29.30
2019-04-01T20:45:05.839Z,17.43
2019-04-01T20:48:09.704Z,39.43
2019-04-01T20:51:13.268Z,46.43
2019-04-01T20:54:16.879Z,52.60
2019-04-01T20:57:21.830Z,50.03
2019-04-01T21:00:25.691Z,51.73
2019-04-01T21:03:30.260Z,53.67
2019-04-01T21:06:34.159Z,47.87
2019-04-01T21:09:38.021Z,48.33
2019-04-01T21:12:41.588Z,46.27
2019-04-01T21:15:45.421Z,51.57
2019-04-01T21:18:49.252Z,44.73
2019-04-01T21:21:52.834Z,45.53
2019-04-01T21:24:57.248Z,43.57
2019-04-01T21:28:00.807Z,44.07
2019-04-01T21:31:05.378Z,43.17
2019-04-01T21:34:09.244Z,32.87
2019-04-01T21:37:12.812Z,33.00
2019-04-01T21:40:16.713Z,28.50
2019-04-01T21:43:20.937Z,28.03
2019-04-01T21:46:24.625Z,28.03
2019-04-01T21:49:28.255Z,27.07
2019-04-01T21:52:31.823Z,27.27
2019-04-01T21:55:35.377Z,27.23
2019-04-01T21:58:39.266Z,26.63
2019-04-01T22:01:42.892Z,25.47
2019-04-01T22:04:46.776Z,24.27
2019-04-01T22:07:50.337Z,23.33
2019-04-01T22:10:53.891Z,22.03
2019-04-01T22:13:57.457Z,20.90
2019-04-01T22:17:01.016Z,21.27
2019-04-01T22:20:05.479Z,20.13
2019-04-01T22:23:09.057Z,20.23
2019-04-01T22:26:12.668Z,19.07
2019-04-01T22:29:16.228Z,18.50
2019-04-01T22:32:20.198Z,18.17
2019-04-01T22:35:24.480Z,17.97
2019-04-01T22:38:28.051Z,17.90
2019-04-01T22:41:31.868Z,17.47
2019-04-01T22:44:35.685Z,16.97
2019-04-01T22:47:39.253Z,15.87
2019-04-01T22:50:43.093Z,15.90
2019-04-01T22:53:46.654Z,14.67
2019-04-01T22:56:50.312Z,14.60
2019-04-01T22:59:53.868Z,14.20
2019-04-01T23:02:57.446Z,13.87
2019-04-01T23:06:01.593Z,14.60
2019-04-01T23:09:06.811Z,12.90
2019-04-01T23:12:10.357Z,13.17
2019-04-01T23:15:14.273Z,12.27
2019-04-01T23:18:18.943Z,12.97
2019-04-01T23:21:22.516Z,12.53
2019-04-01T23:24:26.088Z,11.80
2019-04-01T23:27:29.969Z,11.87
2019-04-01T23:30:33.546Z,11.43
2019-04-01T23:33:37.106Z,11.27
2019-04-01T23:36:41.180Z,10.63
2019-04-01T23:39:45.046Z,10.80
2019-04-01T23:42:48.595Z,10.10
2019-04-01T23:45:52.480Z,9.87
2019-04-01T23:48:56.036Z,9.53
2019-04-01T23:51:59.601Z,9.60
2019-04-01T23:55:03.154Z,9.10
2019-04-01T23:58:06.710Z,9.20
